sensor_id;sensor_type;location;lat;lon;timestamp;P1;durP1;ratioP1;P2;durP2;ratioP2
75342;SDS011;63936;51.006;13.764;2024-03-08T00:00:02;26;;;12;;
75342;SDS011;63936;51.006;13.764;2024-03-08T00:02:01;25;;;13;;
75342;SDS011;63936;51.006;13.764;2024-03-08T00:04:01;22;;;11;;
75342;SDS011;63936;51.006;13.764;2024-03-08T00:06:01;23;;;13;;
75342;SDS011;63936;51.006;13.764;2024-03-08T00:08:01;25;;;12;;
75342;SDS011;63936;51.006;13.764;2024-03-08T00:10:02;24;;;11;;
75342;SDS011;63936;51.006;13.764;2024-03-08T00:12:01;25;;;12;;
75342;SDS011;63936;51.006;13.764;2024-03-08T00:14:01;28;;;12;;
75342;SDS011;63936;51.006;13.764;2024-03-08T00:16:01;22;;;11;;
75342;SDS011;63936;51.006;13.764;2024-03-08T00:18:01;22;;;11;;
75342;SDS011;63936;51.006;13.764;2024-03-08T00:20:02;39;;;22;;
75342;SDS011;63936;51.006;13.764;2024-03-08T00:22:01;45;;;24;;
75342;SDS011;63936;51.006;13.764;2024-03-08T00:24:01;35;;;18;;
75342;SDS011;63936;51.006;13.764;2024-03-08T00:26:02;30;;;15;;
75342;SDS011;63936;51.006;13.764;2024-03-08T00:28:02;26;;;14;;
75342;SDS011;63936;51.006;13.764;2024-03-08T00:30:02;30;;;15;;
75342;SDS011;63936;51.006;13.764;2024-03-08T00:32:01;30;;;15;;
75342;SDS011;63936;51.006;13.764;2024-03-08T00:34:01;38;;;21;;
75342;SDS011;63936;51.006;13.764;2024-03-08T00:36:01;32;;;17;;
75342;SDS011;63936;51.006;13.764;2024-03-08T00:38:01;32;;;17;;
75342;SDS011;63936;51.006;13.764;2024-03-08T00:40:02;24;;;12;;
75342;SDS011;63936;51.006;13.764;2024-03-08T00:42:01;26;;;13;;
75342;SDS011;63936;51.006;13.764;2024-03-08T00:44:01;25;;;12;;
75342;SDS011;63936;51.006;13.764;2024-03-08T00:46:02;25;;;13;;
75342;SDS011;63936;51.006;13.764;2024-03-08T00:48:02;25;;;13;;
75342;SDS011;63936;51.006;13.764;2024-03-08T00:50:02;24;;;11;;
75342;SDS011;63936;51.006;13.764;2024-03-08T00:52:02;24;;;11;;
75342;SDS011;63936;51.006;13.764;2024-03-08T00:54:02;26;;;12;;
75342;SDS011;63936;51.006;13.764;2024-03-08T00:56:02;25;;;11;;
75342;SDS011;63936;51.006;13.764;2024-03-08T00:58:01;28;;;12;;
75342;SDS011;63936;51.006;13.764;2024-03-08T01:00:02;26;;;12;;
75342;SDS011;63936;51.006;13.764;2024-03-08T01:02:02;26;;;12;;
75342;SDS011;63936;51.006;13.764;2024-03-08T01:04:03;26;;;12;;
75342;SDS011;63936;51.006;13.764;2024-03-08T01:06:02;25;;;12;;
75342;SDS011;63936;51.006;13.764;2024-03-08T01:08:02;25;;;12;;
75342;SDS011;63936;51.006;13.764;2024-03-08T01:10:06;25;;;12;;
75342;SDS011;63936;51.006;13.764;2024-03-08T01:12:02;38;;;21;;
75342;SDS011;63936;51.006;13.764;2024-03-08T01:14:02;38;;;17;;
75342;SDS011;63936;51.006;13.764;2024-03-08T01:16:02;38;;;17;;
75342;SDS011;63936;51.006;13.764;2024-03-08T01:18:02;30;;;13;;
75342;SDS011;63936;51.006;13.764;2024-03-08T01:20:05;27;;;13;;
75342;SDS011;63936;51.006;13.764;2024-03-08T01:22:02;25;;;11;;
75342;SDS011;63936;51.006;13.764;2024-03-08T01:24:02;28;;;14;;
75342;SDS011;63936;51.006;13.764;2024-03-08T01:26:02;33;;;16;;
75342;SDS011;63936;51.006;13.764;2024-03-08T01:28:02;39;;;22;;
75342;SDS011;63936;51.006;13.764;2024-03-08T01:30:04;33;;;17;;
75342;SDS011;63936;51.006;13.764;2024-03-08T01:32:02;33;;;17;;
75342;SDS011;63936;51.006;13.764;2024-03-08T01:34:02;39;;;21;;
75342;SDS011;63936;51.006;13.764;2024-03-08T01:36:03;39;;;21;;
75342;SDS011;63936;51.006;13.764;2024-03-08T01:38:02;43;;;23;;
75342;SDS011;63936;51.006;13.764;2024-03-08T01:40:05;33;;;19;;
75342;SDS011;63936;51.006;13.764;2024-03-08T01:42:01;30;;;17;;
75342;SDS011;63936;51.006;13.764;2024-03-08T01:44:02;30;;;17;;
75342;SDS011;63936;51.006;13.764;2024-03-08T01:46:02;39;;;21;;
75342;SDS011;63936;51.006;13.764;2024-03-08T01:48:02;36;;;17;;
75342;SDS011;63936;51.006;13.764;2024-03-08T01:50:05;36;;;17;;
75342;SDS011;63936;51.006;13.764;2024-03-08T01:52:01;41;;;23;;
75342;SDS011;63936;51.006;13.764;2024-03-08T01:54:02;34;;;18;;
75342;SDS011;63936;51.006;13.764;2024-03-08T01:56:02;29;;;14;;
75342;SDS011;63936;51.006;13.764;2024-03-08T01:58:02;34;;;14;;
75342;SDS011;63936;51.006;13.764;2024-03-08T02:00:05;28;;;13;;
75342;SDS011;63936;51.006;13.764;2024-03-08T02:02:01;27;;;14;;
75342;SDS011;63936;51.006;13.764;2024-03-08T02:04:01;27;;;12;;
75342;SDS011;63936;51.006;13.764;2024-03-08T02:06:01;25;;;12;;
75342;SDS011;63936;51.006;13.764;2024-03-08T02:08:01;34;;;17;;
75342;SDS011;63936;51.006;13.764;2024-03-08T02:10:04;31;;;17;;
75342;SDS011;63936;51.006;13.764;2024-03-08T02:12:02;31;;;15;;
75342;SDS011;63936;51.006;13.764;2024-03-08T02:14:02;28;;;13;;
75342;SDS011;63936;51.006;13.764;2024-03-08T02:16:02;30;;;13;;
75342;SDS011;63936;51.006;13.764;2024-03-08T02:18:02;25;;;12;;
75342;SDS011;63936;51.006;13.764;2024-03-08T02:20:04;25;;;12;;
75342;SDS011;63936;51.006;13.764;2024-03-08T02:22:01;24;;;11;;
75342;SDS011;63936;51.006;13.764;2024-03-08T02:24:01;24;;;11;;
75342;SDS011;63936;51.006;13.764;2024-03-08T02:26:01;21;;;11;;
75342;SDS011;63936;51.006;13.764;2024-03-08T02:28:01;21;;;11;;
75342;SDS011;63936;51.006;13.764;2024-03-08T02:30:04;43;;;23;;
75342;SDS011;63936;51.006;13.764;2024-03-08T02:32:02;36;;;19;;
75342;SDS011;63936;51.006;13.764;2024-03-08T02:34:02;32;;;14;;
75342;SDS011;63936;51.006;13.764;2024-03-08T02:36:02;27;;;14;;
75342;SDS011;63936;51.006;13.764;2024-03-08T02:38:02;40;;;20;;
75342;SDS011;63936;51.006;13.764;2024-03-08T02:40:04;40;;;21;;
75342;SDS011;63936;51.006;13.764;2024-03-08T02:42:02;31;;;16;;
75342;SDS011;63936;51.006;13.764;2024-03-08T02:44:02;32;;;16;;
75342;SDS011;63936;51.006;13.764;2024-03-08T02:46:02;31;;;14;;
75342;SDS011;63936;51.006;13.764;2024-03-08T02:48:02;31;;;14;;
75342;SDS011;63936;51.006;13.764;2024-03-08T02:50:04;44;;;23;;
75342;SDS011;63936;51.006;13.764;2024-03-08T02:52:02;44;;;23;;
75342;SDS011;63936;51.006;13.764;2024-03-08T02:54:02;44;;;23;;
75342;SDS011;63936;51.006;13.764;2024-03-08T02:56:02;44;;;23;;
75342;SDS011;63936;51.006;13.764;2024-03-08T02:58:02;33;;;17;;
75342;SDS011;63936;51.006;13.764;2024-03-08T03:00:04;32;;;13;;
75342;SDS011;63936;51.006;13.764;2024-03-08T03:02:01;35;;;14;;
75342;SDS011;63936;51.006;13.764;2024-03-08T03:04:01;40;;;20;;
75342;SDS011;63936;51.006;13.764;2024-03-08T03:06:02;39;;;22;;
75342;SDS011;63936;51.006;13.764;2024-03-08T03:08:02;34;;;18;;
75342;SDS011;63936;51.006;13.764;2024-03-08T03:10:06;30;;;14;;
75342;SDS011;63936;51.006;13.764;2024-03-08T03:12:02;26;;;13;;
75342;SDS011;63936;51.006;13.764;2024-03-08T03:14:02;26;;;13;;
75342;SDS011;63936;51.006;13.764;2024-03-08T03:16:04;41;;;22;;
75342;SDS011;63936;51.006;13.764;2024-03-08T03:18:02;37;;;18;;
75342;SDS011;63936;51.006;13.764;2024-03-08T03:20:13;29;;;15;;
75342;SDS011;63936;51.006;13.764;2024-03-08T03:22:01;29;;;15;;
75342;SDS011;63936;51.006;13.764;2024-03-08T03:24:01;26;;;12;;
75342;SDS011;63936;51.006;13.764;2024-03-08T03:26:02;26;;;12;;
75342;SDS011;63936;51.006;13.764;2024-03-08T03:28:02;42;;;22;;
75342;SDS011;63936;51.006;13.764;2024-03-08T03:30:02;47;;;26;;
75342;SDS011;63936;51.006;13.764;2024-03-08T03:32:02;35;;;19;;
75342;SDS011;63936;51.006;13.764;2024-03-08T03:34:02;30;;;15;;
75342;SDS011;63936;51.006;13.764;2024-03-08T03:36:01;32;;;13;;
75342;SDS011;63936;51.006;13.764;2024-03-08T03:38:03;31;;;13;;
75342;SDS011;63936;51.006;13.764;2024-03-08T03:40:03;25;;;12;;
75342;SDS011;63936;51.006;13.764;2024-03-08T03:42:02;32;;;13;;
75342;SDS011;63936;51.006;13.764;2024-03-08T03:44:02;36;;;17;;
75342;SDS011;63936;51.006;13.764;2024-03-08T03:46:02;43;;;22;;
75342;SDS011;63936;51.006;13.764;2024-03-08T03:48:02;33;;;17;;
75342;SDS011;63936;51.006;13.764;2024-03-08T03:50:02;33;;;17;;
75342;SDS011;63936;51.006;13.764;2024-03-08T03:52:02;44;;;22;;
75342;SDS011;63936;51.006;13.764;2024-03-08T03:54:02;44;;;22;;
75342;SDS011;63936;51.006;13.764;2024-03-08T03:56:02;46;;;23;;
75342;SDS011;63936;51.006;13.764;2024-03-08T03:58:01;46;;;23;;
75342;SDS011;63936;51.006;13.764;2024-03-08T04:00:01;45;;;24;;
75342;SDS011;63936;51.006;13.764;2024-03-08T04:02:02;39;;;22;;
75342;SDS011;63936;51.006;13.764;2024-03-08T04:04:02;29;;;15;;
75342;SDS011;63936;51.006;13.764;2024-03-08T04:06:02;29;;;15;;
75342;SDS011;63936;51.006;13.764;2024-03-08T04:08:03;42;;;21;;
75342;SDS011;63936;51.006;13.764;2024-03-08T04:10:01;36;;;19;;
75342;SDS011;63936;51.006;13.764;2024-03-08T04:12:01;32;;;14;;
75342;SDS011;63936;51.006;13.764;2024-03-08T04:14:01;28;;;15;;
75342;SDS011;63936;51.006;13.764;2024-03-08T04:16:01;35;;;19;;
75342;SDS011;63936;51.006;13.764;2024-03-08T04:18:01;41;;;22;;
75342;SDS011;63936;51.006;13.764;2024-03-08T04:20:02;41;;;22;;
75342;SDS011;63936;51.006;13.764;2024-03-08T04:22:01;27;;;14;;
75342;SDS011;63936;51.006;13.764;2024-03-08T04:24:01;27;;;14;;
75342;SDS011;63936;51.006;13.764;2024-03-08T04:26:02;27;;;14;;
75342;SDS011;63936;51.006;13.764;2024-03-08T04:28:02;41;;;22;;
75342;SDS011;63936;51.006;13.764;2024-03-08T04:30:02;48;;;25;;
75342;SDS011;63936;51.006;13.764;2024-03-08T04:32:01;37;;;18;;
75342;SDS011;63936;51.006;13.764;2024-03-08T04:34:01;37;;;18;;
75342;SDS011;63936;51.006;13.764;2024-03-08T04:36:01;42;;;22;;
75342;SDS011;63936;51.006;13.764;2024-03-08T04:38:01;36;;;18;;
75342;SDS011;63936;51.006;13.764;2024-03-08T04:40:02;32;;;15;;
75342;SDS011;63936;51.006;13.764;2024-03-08T04:42:02;29;;;14;;
75342;SDS011;63936;51.006;13.764;2024-03-08T04:44:01;29;;;14;;
75342;SDS011;63936;51.006;13.764;2024-03-08T04:46:02;37;;;20;;
75342;SDS011;63936;51.006;13.764;2024-03-08T04:48:02;43;;;23;;
75342;SDS011;63936;51.006;13.764;2024-03-08T04:50:02;47;;;26;;
75342;SDS011;63936;51.006;13.764;2024-03-08T04:52:01;37;;;19;;
75342;SDS011;63936;51.006;13.764;2024-03-08T04:54:01;31;;;15;;
75342;SDS011;63936;51.006;13.764;2024-03-08T04:56:01;31;;;15;;
75342;SDS011;63936;51.006;13.764;2024-03-08T04:58:01;47;;;23;;
75342;SDS011;63936;51.006;13.764;2024-03-08T05:00:02;47;;;23;;
75342;SDS011;63936;51.006;13.764;2024-03-08T05:02:02;47;;;23;;
75342;SDS011;63936;51.006;13.764;2024-03-08T05:04:02;48;;;26;;
75342;SDS011;63936;51.006;13.764;2024-03-08T05:06:02;48;;;26;;
75342;SDS011;63936;51.006;13.764;2024-03-08T05:08:02;34;;;18;;
75342;SDS011;63936;51.006;13.764;2024-03-08T05:10:03;28;;;15;;
75342;SDS011;63936;51.006;13.764;2024-03-08T05:12:01;31;;;15;;
75342;SDS011;63936;51.006;13.764;2024-03-08T05:14:01;31;;;15;;
75342;SDS011;63936;51.006;13.764;2024-03-08T05:16:02;43;;;22;;
75342;SDS011;63936;51.006;13.764;2024-03-08T05:18:02;43;;;22;;
75342;SDS011;63936;51.006;13.764;2024-03-08T05:20:04;47;;;25;;
75342;SDS011;63936;51.006;13.764;2024-03-08T05:22:01;37;;;18;;
75342;SDS011;63936;51.006;13.764;2024-03-08T05:24:02;37;;;18;;
75342;SDS011;63936;51.006;13.764;2024-03-08T05:26:01;37;;;18;;
75342;SDS011;63936;51.006;13.764;2024-03-08T05:28:02;41;;;23;;
75342;SDS011;63936;51.006;13.764;2024-03-08T05:30:04;47;;;25;;
75342;SDS011;63936;51.006;13.764;2024-03-08T05:32:01;47;;;25;;
75342;SDS011;63936;51.006;13.764;2024-03-08T05:34:01;43;;;22;;
75342;SDS011;63936;51.006;13.764;2024-03-08T05:36:02;35;;;17;;
75342;SDS011;63936;51.006;13.764;2024-03-08T05:38:01;31;;;16;;
75342;SDS011;63936;51.006;13.764;2024-03-08T05:40:03;31;;;16;;
75342;SDS011;63936;51.006;13.764;2024-03-08T05:42:02;42;;;22;;
75342;SDS011;63936;51.006;13.764;2024-03-08T05:44:02;35;;;18;;
75342;SDS011;63936;51.006;13.764;2024-03-08T05:46:02;33;;;15;;
75342;SDS011;63936;51.006;13.764;2024-03-08T05:48:01;27;;;14;;
75342;SDS011;63936;51.006;13.764;2024-03-08T05:50:04;42;;;21;;
75342;SDS011;63936;51.006;13.764;2024-03-08T05:52:02;44;;;22;;
75342;SDS011;63936;51.006;13.764;2024-03-08T05:54:01;41;;;21;;
75342;SDS011;63936;51.006;13.764;2024-03-08T05:56:01;41;;;22;;
75342;SDS011;63936;51.006;13.764;2024-03-08T05:58:02;31;;;17;;
75342;SDS011;63936;51.006;13.764;2024-03-08T06:00:04;28;;;14;;
75342;SDS011;63936;51.006;13.764;2024-03-08T06:02:02;33;;;14;;
75342;SDS011;63936;51.006;13.764;2024-03-08T06:04:02;38;;;20;;
75342;SDS011;63936;51.006;13.764;2024-03-08T06:06:02;36;;;21;;
75342;SDS011;63936;51.006;13.764;2024-03-08T06:08:01;36;;;21;;
75342;SDS011;63936;51.006;13.764;2024-03-08T06:10:03;42;;;22;;
75342;SDS011;63936;51.006;13.764;2024-03-08T06:12:02;36;;;19;;
75342;SDS011;63936;51.006;13.764;2024-03-08T06:14:02;36;;;19;;
75342;SDS011;63936;51.006;13.764;2024-03-08T06:16:02;37;;;21;;
75342;SDS011;63936;51.006;13.764;2024-03-08T06:18:02;32;;;16;;
75342;SDS011;63936;51.006;13.764;2024-03-08T06:20:03;28;;;14;;
75342;SDS011;63936;51.006;13.764;2024-03-08T06:22:01;28;;;14;;
75342;SDS011;63936;51.006;13.764;2024-03-08T06:24:01;30;;;13;;
75342;SDS011;63936;51.006;13.764;2024-03-08T06:26:02;30;;;13;;
75342;SDS011;63936;51.006;13.764;2024-03-08T06:28:02;26;;;13;;
75342;SDS011;63936;51.006;13.764;2024-03-08T06:30:03;27;;;13;;
75342;SDS011;63936;51.006;13.764;2024-03-08T06:32:02;22;;;12;;
75342;SDS011;63936;51.006;13.764;2024-03-08T06:34:01;25;;;13;;
75342;SDS011;63936;51.006;13.764;2024-03-08T06:36:01;32;;;14;;
75342;SDS011;63936;51.006;13.764;2024-03-08T06:38:01;30;;;13;;
75342;SDS011;63936;51.006;13.764;2024-03-08T06:40:05;26;;;14;;
75342;SDS011;63936;51.006;13.764;2024-03-08T06:42:01;27;;;14;;
75342;SDS011;63936;51.006;13.764;2024-03-08T06:44:01;25;;;13;;
75342;SDS011;63936;51.006;13.764;2024-03-08T06:46:01;26;;;13;;
75342;SDS011;63936;51.006;13.764;2024-03-08T06:48:01;25;;;13;;
75342;SDS011;63936;51.006;13.764;2024-03-08T06:50:04;25;;;13;;
75342;SDS011;63936;51.006;13.764;2024-03-08T06:52:01;25;;;13;;
75342;SDS011;63936;51.006;13.764;2024-03-08T06:54:02;26;;;14;;
75342;SDS011;63936;51.006;13.764;2024-03-08T06:56:01;24;;;12;;
75342;SDS011;63936;51.006;13.764;2024-03-08T06:58:01;26;;;12;;
75342;SDS011;63936;51.006;13.764;2024-03-08T07:00:04;28;;;13;;
75342;SDS011;63936;51.006;13.764;2024-03-08T07:02:02;27;;;13;;
75342;SDS011;63936;51.006;13.764;2024-03-08T07:04:02;28;;;13;;
75342;SDS011;63936;51.006;13.764;2024-03-08T07:06:02;28;;;14;;
75342;SDS011;63936;51.006;13.764;2024-03-08T07:08:01;30;;;15;;
75342;SDS011;63936;51.006;13.764;2024-03-08T07:10:04;31;;;15;;
75342;SDS011;63936;51.006;13.764;2024-03-08T07:12:02;24;;;13;;
75342;SDS011;63936;51.006;13.764;2024-03-08T07:14:01;26;;;14;;
75342;SDS011;63936;51.006;13.764;2024-03-08T07:16:02;21;;;11;;
75342;SDS011;63936;51.006;13.764;2024-03-08T07:18:01;25;;;12;;
75342;SDS011;63936;51.006;13.764;2024-03-08T07:20:02;28;;;14;;
75342;SDS011;63936;51.006;13.764;2024-03-08T07:22:02;31;;;15;;
75342;SDS011;63936;51.006;13.764;2024-03-08T07:24:02;31;;;15;;
75342;SDS011;63936;51.006;13.764;2024-03-08T07:26:01;31;;;18;;
75342;SDS011;63936;51.006;13.764;2024-03-08T07:28:01;27;;;16;;
75342;SDS011;63936;51.006;13.764;2024-03-08T07:30:05;29;;;16;;
75342;SDS011;63936;51.006;13.764;2024-03-08T07:32:01;32;;;16;;
75342;SDS011;63936;51.006;13.764;2024-03-08T07:34:01;32;;;17;;
75342;SDS011;63936;51.006;13.764;2024-03-08T07:36:01;28;;;16;;
75342;SDS011;63936;51.006;13.764;2024-03-08T07:38:01;30;;;17;;
75342;SDS011;63936;51.006;13.764;2024-03-08T07:40:04;30;;;16;;
75342;SDS011;63936;51.006;13.764;2024-03-08T07:42:01;30;;;16;;
75342;SDS011;63936;51.006;13.764;2024-03-08T07:44:01;27;;;15;;
75342;SDS011;63936;51.006;13.764;2024-03-08T07:46:02;27;;;16;;
75342;SDS011;63936;51.006;13.764;2024-03-08T07:48:02;28;;;15;;
75342;SDS011;63936;51.006;13.764;2024-03-08T07:50:03;28;;;16;;
75342;SDS011;63936;51.006;13.764;2024-03-08T07:52:01;28;;;16;;
75342;SDS011;63936;51.006;13.764;2024-03-08T07:54:01;25;;;15;;
75342;SDS011;63936;51.006;13.764;2024-03-08T07:56:01;25;;;13;;
75342;SDS011;63936;51.006;13.764;2024-03-08T07:58:02;26;;;14;;
75342;SDS011;63936;51.006;13.764;2024-03-08T08:00:04;31;;;18;;
75342;SDS011;63936;51.006;13.764;2024-03-08T08:02:01;29;;;17;;
75342;SDS011;63936;51.006;13.764;2024-03-08T08:04:01;29;;;17;;
75342;SDS011;63936;51.006;13.764;2024-03-08T08:06:02;30;;;17;;
75342;SDS011;63936;51.006;13.764;2024-03-08T08:08:01;29;;;15;;
75342;SDS011;63936;51.006;13.764;2024-03-08T08:10:03;29;;;18;;
75342;SDS011;63936;51.006;13.764;2024-03-08T08:12:01;29;;;17;;
75342;SDS011;63936;51.006;13.764;2024-03-08T08:14:02;28;;;17;;
75342;SDS011;63936;51.006;13.764;2024-03-08T08:16:02;27;;;20;;
75342;SDS011;63936;51.006;13.764;2024-03-08T08:18:02;26;;;18;;
75342;SDS011;63936;51.006;13.764;2024-03-08T08:20:04;30;;;15;;
75342;SDS011;63936;51.006;13.764;2024-03-08T08:22:01;29;;;17;;
75342;SDS011;63936;51.006;13.764;2024-03-08T08:24:01;26;;;17;;
75342;SDS011;63936;51.006;13.764;2024-03-08T08:26:02;27;;;18;;
75342;SDS011;63936;51.006;13.764;2024-03-08T08:28:01;29;;;19;;
75342;SDS011;63936;51.006;13.764;2024-03-08T08:30:01;29;;;19;;
75342;SDS011;63936;51.006;13.764;2024-03-08T08:32:01;28;;;21;;
75342;SDS011;63936;51.006;13.764;2024-03-08T08:34:01;28;;;22;;
75342;SDS011;63936;51.006;13.764;2024-03-08T08:36:01;27;;;16;;
75342;SDS011;63936;51.006;13.764;2024-03-08T08:38:01;26;;;17;;
75342;SDS011;63936;51.006;13.764;2024-03-08T08:40:02;27;;;22;;
75342;SDS011;63936;51.006;13.764;2024-03-08T08:42:01;29;;;22;;
75342;SDS011;63936;51.006;13.764;2024-03-08T08:44:01;31;;;23;;
75342;SDS011;63936;51.006;13.764;2024-03-08T08:46:02;27;;;21;;
75342;SDS011;63936;51.006;13.764;2024-03-08T08:48:02;28;;;21;;
75342;SDS011;63936;51.006;13.764;2024-03-08T08:50:02;28;;;22;;
75342;SDS011;63936;51.006;13.764;2024-03-08T08:52:01;28;;;22;;
75342;SDS011;63936;51.006;13.764;2024-03-08T08:54:01;28;;;22;;
75342;SDS011;63936;51.006;13.764;2024-03-08T08:56:01;28;;;21;;
75342;SDS011;63936;51.006;13.764;2024-03-08T08:58:01;28;;;22;;
75342;SDS011;63936;51.006;13.764;2024-03-08T09:00:02;26;;;22;;
75342;SDS011;63936;51.006;13.764;2024-03-08T09:02:01;27;;;22;;
75342;SDS011;63936;51.006;13.764;2024-03-08T09:04:01;28;;;23;;
75342;SDS011;63936;51.006;13.764;2024-03-08T09:06:02;28;;;22;;
75342;SDS011;63936;51.006;13.764;2024-03-08T09:08:02;25;;;21;;
75342;SDS011;63936;51.006;13.764;2024-03-08T09:10:01;24;;;20;;
75342;SDS011;63936;51.006;13.764;2024-03-08T09:12:01;27;;;21;;
75342;SDS011;63936;51.006;13.764;2024-03-08T09:14:01;26;;;21;;
75342;SDS011;63936;51.006;13.764;2024-03-08T09:16:01;26;;;20;;
75342;SDS011;63936;51.006;13.764;2024-03-08T09:18:01;26;;;20;;
75342;SDS011;63936;51.006;13.764;2024-03-08T09:20:02;25;;;20;;
75342;SDS011;63936;51.006;13.764;2024-03-08T09:22:02;26;;;20;;
75342;SDS011;63936;51.006;13.764;2024-03-08T09:24:02;25;;;20;;
75342;SDS011;63936;51.006;13.764;2024-03-08T09:26:02;24;;;19;;
75342;SDS011;63936;51.006;13.764;2024-03-08T09:28:02;25;;;20;;
75342;SDS011;63936;51.006;13.764;2024-03-08T09:30:02;26;;;20;;
75342;SDS011;63936;51.006;13.764;2024-03-08T09:32:01;23;;;19;;
75342;SDS011;63936;51.006;13.764;2024-03-08T09:34:01;24;;;20;;
75342;SDS011;63936;51.006;13.764;2024-03-08T09:36:01;25;;;20;;
75342;SDS011;63936;51.006;13.764;2024-03-08T09:38:01;24;;;19;;
75342;SDS011;63936;51.006;13.764;2024-03-08T09:40:02;26;;;19;;
75342;SDS011;63936;51.006;13.764;2024-03-08T09:42:02;24;;;19;;
75342;SDS011;63936;51.006;13.764;2024-03-08T09:44:02;23;;;19;;
75342;SDS011;63936;51.006;13.764;2024-03-08T09:46:01;23;;;19;;
75342;SDS011;63936;51.006;13.764;2024-03-08T09:48:01;25;;;19;;
75342;SDS011;63936;51.006;13.764;2024-03-08T09:50:01;24;;;19;;
75342;SDS011;63936;51.006;13.764;2024-03-08T09:52:01;24;;;19;;
75342;SDS011;63936;51.006;13.764;2024-03-08T09:54:01;23;;;19;;
75342;SDS011;63936;51.006;13.764;2024-03-08T09:56:01;28;;;19;;
75342;SDS011;63936;51.006;13.764;2024-03-08T09:58:01;25;;;20;;
75342;SDS011;63936;51.006;13.764;2024-03-08T10:00:02;23;;;18;;
75342;SDS011;63936;51.006;13.764;2024-03-08T10:02:02;24;;;19;;
75342;SDS011;63936;51.006;13.764;2024-03-08T10:04:02;23;;;18;;
75342;SDS011;63936;51.006;13.764;2024-03-08T10:06:02;23;;;18;;
75342;SDS011;63936;51.006;13.764;2024-03-08T10:08:02;23;;;18;;
75342;SDS011;63936;51.006;13.764;2024-03-08T10:10:02;24;;;18;;
75342;SDS011;63936;51.006;13.764;2024-03-08T10:12:02;22;;;18;;
75342;SDS011;63936;51.006;13.764;2024-03-08T10:14:02;21;;;17;;
75342;SDS011;63936;51.006;13.764;2024-03-08T10:16:02;22;;;18;;
75342;SDS011;63936;51.006;13.764;2024-03-08T10:18:02;22;;;18;;
75342;SDS011;63936;51.006;13.764;2024-03-08T10:20:02;22;;;17;;
75342;SDS011;63936;51.006;13.764;2024-03-08T10:22:01;22;;;18;;
75342;SDS011;63936;51.006;13.764;2024-03-08T10:24:02;21;;;17;;
75342;SDS011;63936;51.006;13.764;2024-03-08T10:26:16;21;;;17;;
75342;SDS011;63936;51.006;13.764;2024-03-08T10:28:02;22;;;18;;
75342;SDS011;63936;51.006;13.764;2024-03-08T10:30:02;23;;;18;;
75342;SDS011;63936;51.006;13.764;2024-03-08T10:32:01;22;;;18;;
75342;SDS011;63936;51.006;13.764;2024-03-08T10:34:01;21;;;17;;
75342;SDS011;63936;51.006;13.764;2024-03-08T10:36:01;22;;;17;;
75342;SDS011;63936;51.006;13.764;2024-03-08T10:38:01;22;;;17;;
75342;SDS011;63936;51.006;13.764;2024-03-08T10:40:03;23;;;18;;
75342;SDS011;63936;51.006;13.764;2024-03-08T10:42:02;21;;;17;;
75342;SDS011;63936;51.006;13.764;2024-03-08T10:44:07;23;;;18;;
75342;SDS011;63936;51.006;13.764;2024-03-08T10:46:04;22;;;18;;
75342;SDS011;63936;51.006;13.764;2024-03-08T10:48:10;23;;;18;;
75342;SDS011;63936;51.006;13.764;2024-03-08T10:50:05;23;;;17;;
75342;SDS011;63936;51.006;13.764;2024-03-08T10:52:03;22;;;17;;
75342;SDS011;63936;51.006;13.764;2024-03-08T10:54:02;22;;;17;;
75342;SDS011;63936;51.006;13.764;2024-03-08T10:56:01;23;;;18;;
75342;SDS011;63936;51.006;13.764;2024-03-08T10:58:01;22;;;17;;
75342;SDS011;63936;51.006;13.764;2024-03-08T11:00:04;22;;;17;;
75342;SDS011;63936;51.006;13.764;2024-03-08T11:02:02;22;;;17;;
75342;SDS011;63936;51.006;13.764;2024-03-08T11:04:03;21;;;17;;
75342;SDS011;63936;51.006;13.764;2024-03-08T11:06:02;21;;;17;;
75342;SDS011;63936;51.006;13.764;2024-03-08T11:08:02;22;;;18;;
75342;SDS011;63936;51.006;13.764;2024-03-08T11:10:03;22;;;18;;
75342;SDS011;63936;51.006;13.764;2024-03-08T11:12:35;22;;;17;;
75342;SDS011;63936;51.006;13.764;2024-03-08T11:14:02;22;;;18;;
75342;SDS011;63936;51.006;13.764;2024-03-08T11:16:02;21;;;17;;
75342;SDS011;63936;51.006;13.764;2024-03-08T11:18:02;20;;;16;;
75342;SDS011;63936;51.006;13.764;2024-03-08T11:20:04;19;;;16;;
75342;SDS011;63936;51.006;13.764;2024-03-08T11:22:02;20;;;16;;
75342;SDS011;63936;51.006;13.764;2024-03-08T11:24:05;20;;;16;;
75342;SDS011;63936;51.006;13.764;2024-03-08T11:26:02;19;;;15;;
75342;SDS011;63936;51.006;13.764;2024-03-08T11:28:10;21;;;16;;
75342;SDS011;63936;51.006;13.764;2024-03-08T11:30:05;21;;;16;;
75342;SDS011;63936;51.006;13.764;2024-03-08T11:32:04;20;;;16;;
75342;SDS011;63936;51.006;13.764;2024-03-08T11:34:02;20;;;16;;
75342;SDS011;63936;51.006;13.764;2024-03-08T11:36:02;21;;;16;;
75342;SDS011;63936;51.006;13.764;2024-03-08T11:38:02;22;;;16;;
75342;SDS011;63936;51.006;13.764;2024-03-08T11:40:11;20;;;15;;
75342;SDS011;63936;51.006;13.764;2024-03-08T11:42:02;20;;;16;;
75342;SDS011;63936;51.006;13.764;2024-03-08T11:44:03;19;;;16;;
75342;SDS011;63936;51.006;13.764;2024-03-08T11:46:07;19;;;15;;
75342;SDS011;63936;51.006;13.764;2024-03-08T11:48:02;19;;;16;;
75342;SDS011;63936;51.006;13.764;2024-03-08T11:50:04;19;;;15;;
75342;SDS011;63936;51.006;13.764;2024-03-08T11:52:02;20;;;15;;
75342;SDS011;63936;51.006;13.764;2024-03-08T11:54:01;20;;;15;;
75342;SDS011;63936;51.006;13.764;2024-03-08T11:56:05;19;;;15;;
75342;SDS011;63936;51.006;13.764;2024-03-08T11:58:02;19;;;15;;
75342;SDS011;63936;51.006;13.764;2024-03-08T12:00:05;19;;;15;;
75342;SDS011;63936;51.006;13.764;2024-03-08T12:02:03;19;;;15;;
75342;SDS011;63936;51.006;13.764;2024-03-08T12:04:02;19;;;14;;
75342;SDS011;63936;51.006;13.764;2024-03-08T12:06:02;20;;;14;;
75342;SDS011;63936;51.006;13.764;2024-03-08T12:08:02;17;;;14;;
75342;SDS011;63936;51.006;13.764;2024-03-08T12:10:19;17;;;14;;
75342;SDS011;63936;51.006;13.764;2024-03-08T12:12:02;16;;;13;;
75342;SDS011;63936;51.006;13.764;2024-03-08T12:14:02;18;;;13;;
75342;SDS011;63936;51.006;13.764;2024-03-08T12:16:02;19;;;13;;
75342;SDS011;63936;51.006;13.764;2024-03-08T12:18:02;19;;;13;;
75342;SDS011;63936;51.006;13.764;2024-03-08T12:20:11;18;;;14;;
75342;SDS011;63936;51.006;13.764;2024-03-08T12:22:07;18;;;13;;
75342;SDS011;63936;51.006;13.764;2024-03-08T12:24:02;16;;;13;;
75342;SDS011;63936;51.006;13.764;2024-03-08T12:26:09;16;;;13;;
75342;SDS011;63936;51.006;13.764;2024-03-08T12:28:07;17;;;13;;
75342;SDS011;63936;51.006;13.764;2024-03-08T12:30:15;18;;;14;;
75342;SDS011;63936;51.006;13.764;2024-03-08T12:32:01;16;;;13;;
75342;SDS011;63936;51.006;13.764;2024-03-08T12:34:03;16;;;13;;
75342;SDS011;63936;51.006;13.764;2024-03-08T12:36:02;17;;;13;;